Time;durP1;ratioP1;P1;durP2;ratioP2;P2;SDS_P1;SDS_P2;PMS_P1;PMS_P2;Temp;Humidity;BMP_temperature;BMP_pressure;BME280_temperature;BME280_humidity;BME280_pressure;Samples;Min_cycle;Max_cycle;Signal;HPM_P1;HPM_P2
2024/03/13 00:00:47;;;;;;;31.88;18.58;;;;;;;13.95;66.60;101235.75;5008416;28;99440;-70
2024/03/13 00:03:13;;;;;;;31.80;18.65;;;;;;;13.91;66.19;101234.13;5006590;28;97143;-69
2024/03/13 00:05:40;;;;;;;32.38;19.80;;;;;;;13.90;65.93;101245.69;5009168;28;96833;-70
2024/03/13 00:08:07;;;;;;;38.17;20.45;;;;;;;13.84;66.04;101238.00;5003451;28;99065;-69
2024/03/13 00:10:35;;;;;;;34.45;20.25;;;;;;;13.82;66.40;101247.81;5006378;28;98865;-70
2024/03/13 00:13:02;;;;;;;32.28;19.30;;;;;;;14.01;65.80;101244.38;5004002;28;98232;-69
2024/03/13 00:15:28;;;;;;;35.30;19.55;;;;;;;14.16;65.19;101241.09;5007410;28;97318;-68
2024/03/13 00:17:55;;;;;;;35.33;19.52;;;;;;;14.10;65.06;101244.88;5007464;28;100987;-70
2024/03/13 00:20:21;;;;;;;32.60;18.60;;;;;;;13.89;66.17;101251.06;5005894;28;99032;-70
2024/03/13 00:22:48;;;;;;;34.70;19.33;;;;;;;14.12;65.45;101245.66;5003979;28;97479;-70
2024/03/13 00:25:15;;;;;;;33.72;18.92;;;;;;;14.16;64.99;101255.25;5008196;28;98530;-70
2024/03/13 00:27:45;;;;;;;30.10;18.10;;;;;;;14.18;64.95;101247.19;5005425;28;98887;-70
2024/03/13 00:30:12;;;;;;;33.72;18.73;;;;;;;14.32;64.54;101245.66;5004755;28;98767;-71
2024/03/13 00:32:40;;;;;;;33.75;19.77;;;;;;;14.42;63.80;101248.84;5008736;28;96953;-71
2024/03/13 00:35:06;;;;;;;33.88;19.85;;;;;;;14.16;64.95;101249.06;5006891;28;97850;-71
2024/03/13 00:37:34;;;;;;;32.35;19.42;;;;;;;13.98;65.66;101248.88;5005792;28;99633;-70
2024/03/13 00:40:00;;;;;;;33.97;19.25;;;;;;;13.83;66.17;101246.00;5003550;28;99129;-71
2024/03/13 00:42:27;;;;;;;32.92;18.50;;;;;;;13.50;67.19;101254.41;5008786;28;97042;-70
2024/03/13 00:44:55;;;;;;;32.00;18.58;;;;;;;13.22;69.11;101250.22;5004201;28;96860;-71
2024/03/13 00:47:22;;;;;;;34.92;18.67;;;;;;;13.36;68.45;101251.44;5004885;28;100232;-71
2024/03/13 00:49:50;;;;;;;31.10;17.45;;;;;;;13.27;69.23;101253.56;5001653;28;100923;-70
2024/03/13 00:52:17;;;;;;;29.10;17.38;;;;;;;13.61;67.19;101253.97;5000877;28;96805;-69
2024/03/13 00:54:45;;;;;;;29.63;17.95;;;;;;;13.77;66.54;101257.75;5002959;28;97094;-70
2024/03/13 00:57:12;;;;;;;28.95;17.35;;;;;;;13.80;66.17;101254.09;5003251;28;99684;-71
2024/03/13 00:59:39;;;;;;;29.08;16.95;;;;;;;13.77;66.30;101252.44;5001465;28;100030;-70
2024/03/13 01:02:08;;;;;;;30.52;18.38;;;;;;;13.48;67.76;101255.38;5006516;28;96809;-71
2024/03/13 01:04:34;;;;;;;29.75;17.20;;;;;;;13.55;67.44;101259.53;4995522;28;97534;-72
2024/03/13 01:07:01;;;;;;;29.70;17.25;;;;;;;13.92;65.98;101251.78;5006497;28;98046;-69
2024/03/13 01:09:27;;;;;;;29.98;17.48;;;;;;;14.07;64.66;101250.31;5003102;28;98840;-70
2024/03/13 01:11:54;;;;;;;31.85;18.08;;;;;;;14.20;64.09;101245.31;5004087;28;97064;-70
2024/03/13 01:14:21;;;;;;;28.90;15.93;;;;;;;14.23;63.69;101247.88;5005758;28;97808;-69
2024/03/13 01:16:51;;;;;;;28.65;16.73;;;;;;;13.68;65.67;101251.94;5005727;28;99517;-70
2024/03/13 01:19:19;;;;;;;31.63;16.42;;;;;;;13.64;66.17;101253.00;4999370;28;100148;-70
2024/03/13 01:21:48;;;;;;;28.80;16.65;;;;;;;13.64;66.25;101250.34;5000336;28;97661;-73
2024/03/13 01:24:17;;;;;;;33.13;17.02;;;;;;;13.91;65.08;101252.72;5004720;28;97225;-70
2024/03/13 01:26:43;;;;;;;32.15;17.50;;;;;;;14.04;64.53;101245.13;5008457;28;101820;-70
2024/03/13 01:29:09;;;;;;;31.20;16.88;;;;;;;14.08;63.76;101248.50;5007521;28;99211;-70
2024/03/13 01:31:36;;;;;;;29.02;17.02;;;;;;;13.82;64.46;101242.50;5005564;28;96869;-70
2024/03/13 01:34:04;;;;;;;29.05;16.25;;;;;;;13.71;65.57;101257.13;4998582;28;97033;-69
2024/03/13 01:39:17;;;;;;;30.73;16.35;;;;;;;13.98;64.28;101244.53;5006255;28;97748;-71
2024/03/13 01:55:35;;;;;;;27.37;16.10;;;;;;;14.14;62.83;101242.94;5008094;28;98615;-70
2024/03/13 01:58:19;;;;;;;28.73;16.23;;;;;;;14.21;62.97;101236.44;5005119;28;98910;-69
2024/03/13 02:03:27;;;;;;;30.55;17.15;;;;;;;13.97;64.10;101238.34;4977084;28;97064;-69
2024/03/13 02:05:54;;;;;;;29.00;16.55;;;;;;;14.03;64.06;101246.06;5005663;28;99298;-69
2024/03/13 02:08:22;;;;;;;29.42;16.90;;;;;;;14.02;64.06;101238.13;5005840;28;98931;-69
2024/03/13 02:10:48;;;;;;;28.98;16.60;;;;;;;13.70;64.92;101240.34;5007611;28;98841;-69
2024/03/13 02:13:17;;;;;;;31.00;17.27;;;;;;;13.74;64.63;101236.63;5004910;28;96852;-70
2024/03/13 02:15:44;;;;;;;29.75;17.63;;;;;;;13.92;64.51;101238.50;5005538;28;97283;-70
2024/03/13 02:18:21;;;;;;;30.42;16.83;;;;;;;13.91;64.83;101238.59;5000589;28;101677;-70
2024/03/13 02:20:50;;;;;;;29.70;16.67;;;;;;;14.00;64.65;101238.19;5001395;28;100483;-70
2024/03/13 02:23:19;;;;;;;29.98;18.13;;;;;;;14.01;64.12;101239.06;5005484;28;97320;-70
2024/03/13 02:25:46;;;;;;;32.97;17.98;;;;;;;14.01;64.24;101241.72;4994943;28;96904;-70
2024/03/13 02:28:14;;;;;;;31.02;17.08;;;;;;;14.01;64.44;101244.38;4991862;28;98903;-70
2024/03/13 02:30:41;;;;;;;28.83;17.85;;;;;;;13.98;64.58;101245.34;4988667;28;100648;-69
2024/03/13 02:33:07;;;;;;;33.45;18.67;;;;;;;13.76;65.83;101234.78;4992754;28;97302;-69
2024/03/13 02:35:34;;;;;;;31.75;19.40;;;;;;;13.88;65.67;101236.06;4990310;28;96977;-68
2024/03/13 02:38:01;;;;;;;32.58;19.08;;;;;;;13.98;65.18;101235.59;4983638;28;102128;-69
2024/03/13 02:40:27;;;;;;;33.33;19.00;;;;;;;13.79;65.45;101245.25;4990058;28;98910;-69
2024/03/13 02:42:54;;;;;;;29.95;18.48;;;;;;;13.89;65.58;101246.63;5002581;28;97845;-70
2024/03/13 02:45:22;;;;;;;33.90;20.27;;;;;;;13.79;66.15;101237.28;4990936;28;97167;-69
2024/03/13 02:47:48;;;;;;;33.95;20.23;;;;;;;13.59;67.15;101244.34;4992913;28;100255;-69
2024/03/13 02:50:16;;;;;;;34.10;19.63;;;;;;;13.74;66.34;101239.28;4987938;28;98028;-70
2024/03/13 02:52:43;;;;;;;35.95;21.33;;;;;;;13.97;65.61;101235.69;4993015;28;97071;-68
2024/03/13 02:55:10;;;;;;;32.55;19.42;;;;;;;13.58;66.78;101238.19;4994355;28;96903;-69
2024/03/13 02:57:37;;;;;;;40.67;21.20;;;;;;;13.68;66.70;101242.19;4990317;28;98981;-69
2024/03/13 03:00:06;;;;;;;38.15;21.08;;;;;;;13.78;66.71;101238.25;4986694;28;98747;-68
2024/03/13 03:02:33;;;;;;;34.83;20.52;;;;;;;13.72;66.89;101238.47;4992538;28;98665;-69
2024/03/13 03:04:59;;;;;;;34.95;20.10;;;;;;;13.66;66.91;101243.16;4987016;28;97143;-70
2024/03/13 03:07:26;;;;;;;34.35;21.38;;;;;;;13.73;66.96;101236.66;4991952;28;98957;-69
2024/03/13 03:09:52;;;;;;;32.67;20.27;;;;;;;13.98;65.99;101239.22;4990840;28;98982;-69
2024/03/13 03:12:19;;;;;;;36.17;20.05;;;;;;;13.92;65.80;101240.31;4993625;28;96849;-69
2024/03/13 03:14:45;;;;;;;33.10;20.52;;;;;;;13.91;65.91;101231.47;4992278;28;97292;-69
2024/03/13 03:17:14;;;;;;;37.08;20.92;;;;;;;13.73;66.36;101242.84;4991825;28;98142;-70
2024/03/13 03:19:41;;;;;;;37.92;21.42;;;;;;;13.63;67.04;101238.84;4985981;28;98321;-69
2024/03/13 03:22:08;;;;;;;36.55;21.33;;;;;;;13.62;66.98;101237.13;4988363;28;98612;-70
2024/03/13 03:24:34;;;;;;;35.55;21.30;;;;;;;13.44;67.67;101240.50;4989342;28;98148;-70
2024/03/13 03:27:01;;;;;;;37.00;21.77;;;;;;;13.35;68.16;101248.81;4989175;28;99518;-70
2024/03/13 03:29:27;;;;;;;35.38;21.52;;;;;;;12.98;69.40;101254.66;4984013;28;98919;-70
2024/03/13 03:31:54;;;;;;;36.85;21.63;;;;;;;12.76;71.34;101247.47;4988913;28;98747;-70
2024/03/13 03:34:22;;;;;;;39.58;22.67;;;;;;;12.91;70.59;101250.50;4983728;28;97328;-70
2024/03/13 03:36:48;;;;;;;41.28;22.42;;;;;;;13.02;70.50;101250.94;4985010;28;100395;-70
2024/03/13 03:39:15;;;;;;;38.20;21.77;;;;;;;12.99;70.43;101254.59;4991995;28;98867;-70
2024/03/13 03:41:42;;;;;;;40.28;22.05;;;;;;;12.87;71.16;101252.38;4989804;28;98966;-70
2024/03/13 03:44:11;;;;;;;42.55;24.25;;;;;;;13.09;70.38;101245.34;4986559;28;96922;-70
2024/03/13 03:46:38;;;;;;;39.70;23.38;;;;;;;12.99;70.35;101241.34;4991641;28;98452;-70
2024/03/13 03:49:05;;;;;;;41.63;23.40;;;;;;;13.05;69.93;101246.41;4989542;28;98783;-69
2024/03/13 03:51:32;;;;;;;39.70;22.52;;;;;;;12.74;71.32;101241.34;4990164;28;96903;-69
2024/03/13 03:53:59;;;;;;;44.10;23.27;;;;;;;12.71;71.64;101240.59;4990374;28;96947;-69
2024/03/13 03:56:26;;;;;;;44.05;23.55;;;;;;;12.44;72.96;101242.47;4990017;28;101354;-69
2024/03/13 03:58:54;;;;;;;43.50;24.10;;;;;;;12.34;73.32;101249.84;4988369;28;103340;-69
2024/03/13 04:01:20;;;;;;;46.05;24.65;;;;;;;12.44;72.98;101242.47;4984876;28;96998;-69
2024/03/13 04:03:47;;;;;;;40.60;22.73;;;;;;;12.28;73.32;101242.13;4993797;28;97478;-69
2024/03/13 04:06:16;;;;;;;39.92;23.23;;;;;;;12.26;73.75;101238.69;4992382;28;101408;-69
2024/03/13 04:08:43;;;;;;;44.58;25.17;;;;;;;12.66;72.48;101235.50;4987399;28;97852;-69
2024/03/13 04:11:10;;;;;;;43.75;24.08;;;;;;;12.46;72.29;101232.69;4991115;28;97834;-69
2024/03/13 04:13:37;;;;;;;41.78;23.58;;;;;;;12.50;73.02;101236.94;4989192;28;97723;-69
2024/03/13 04:16:04;;;;;;;43.70;23.83;;;;;;;12.53;73.07;101243.94;4991576;28;97744;-69
2024/03/13 04:18:31;;;;;;;41.75;23.33;;;;;;;12.21;74.03;101256.50;4985633;28;99312;-69
2024/03/13 04:20:58;;;;;;;42.47;23.60;;;;;;;12.19;73.97;101254.84;4990576;28;96886;-69
2024/03/13 04:23:24;;;;;;;41.72;22.90;;;;;;;11.73;76.46;101260.75;5005127;28;98773;-69
2024/03/13 04:25:52;;;;;;;40.88;23.08;;;;;;;11.72;76.75;101256.38;4989684;28;98902;-69
2024/03/13 04:28:18;;;;;;;43.88;24.30;;;;;;;11.91;75.93;101260.19;4986424;28;99697;-69
2024/03/13 04:30:46;;;;;;;39.72;22.27;;;;;;;11.82;76.65;101258.69;4991795;28;97740;-70
2024/03/13 04:33:12;;;;;;;43.72;23.85;;;;;;;11.86;76.30;101264.78;4990911;28;97846;-70
2024/03/13 04:35:39;;;;;;;41.72;24.83;;;;;;;11.83;76.56;101264.84;4991227;28;99393;-69
2024/03/13 04:38:05;;;;;;;44.33;23.52;;;;;;;11.78;76.94;101264.16;4985711;28;98906;-70
2024/03/13 04:40:32;;;;;;;45.40;24.15;;;;;;;12.07;75.78;101257.91;4990233;28;96835;-70
2024/03/13 04:43:00;;;;;;;46.55;23.58;;;;;;;11.84;76.50;101269.25;4990140;28;97104;-70
2024/03/13 04:45:26;;;;;;;43.42;23.95;;;;;;;11.89;76.17;101275.25;5006031;28;99963;-70
2024/03/13 04:47:53;;;;;;;46.20;24.55;;;;;;;11.67;77.41;101264.47;4987905;28;99092;-70
2024/03/13 04:50:19;;;;;;;48.85;23.95;;;;;;;11.87;76.53;101262.06;4988692;28;97384;-70
2024/03/13 04:52:46;;;;;;;42.88;23.80;;;;;;;11.80;76.70;101260.53;4987335;28;98167;-70
2024/03/13 04:55:12;;;;;;;49.10;24.00;;;;;;;11.88;76.53;101265.59;4987193;28;98416;-69
2024/03/13 04:57:40;;;;;;;47.80;25.65;;;;;;;11.80;76.49;101270.25;4988482;28;98727;-69
2024/03/13 05:00:07;;;;;;;47.70;25.30;;;;;;;11.70;76.98;101269.66;4991543;28;96864;-69
2024/03/13 05:02:34;;;;;;;49.28;26.55;;;;;;;11.72;77.17;101272.25;4991081;28;99111;-69
2024/03/13 05:05:01;;;;;;;49.83;25.48;;;;;;;11.95;75.96;101277.69;4992899;28;101598;-69
2024/03/13 05:07:27;;;;;;;47.10;25.70;;;;;;;11.97;75.89;101270.56;4994767;28;97176;-70
2024/03/13 05:09:54;;;;;;;46.35;25.05;;;;;;;12.14;74.89;101275.31;4985684;28;98154;-70
2024/03/13 05:12:20;;;;;;;47.10;24.15;;;;;;;12.13;74.43;101274.47;4989890;28;97027;-69
2024/03/13 05:14:47;;;;;;;44.65;23.73;;;;;;;12.16;74.23;101277.00;4989944;28;98075;-69
2024/03/13 05:17:15;;;;;;;44.13;23.48;;;;;;;11.95;74.90;101281.22;4989563;28;98732;-69
2024/03/13 05:19:42;;;;;;;48.38;24.40;;;;;;;11.95;75.06;101273.25;4988977;28;97272;-69
2024/03/13 05:22:09;;;;;;;46.78;24.65;;;;;;;12.15;74.29;101274.38;4986067;28;96977;-70
2024/03/13 05:24:35;;;;;;;49.88;24.30;;;;;;;12.21;73.80;101271.53;4988690;28;98922;-69
2024/03/13 05:27:02;;;;;;;48.95;25.20;;;;;;;12.20;73.65;101273.34;4985317;28;99053;-69
2024/03/13 05:29:28;;;;;;;47.45;24.08;;;;;;;12.14;73.61;101275.31;4983388;28;97237;-69
2024/03/13 05:31:55;;;;;;;46.10;24.17;;;;;;;12.26;73.17;101280.22;4992322;28;97280;-69
2024/03/13 05:34:22;;;;;;;47.67;23.92;;;;;;;12.25;72.82;101282.00;4985532;28;97710;-69
2024/03/13 05:36:48;;;;;;;47.72;25.35;;;;;;;12.35;72.68;101279.88;4983410;28;99466;-70
2024/03/13 05:39:15;;;;;;;45.95;25.08;;;;;;;12.27;72.59;101277.47;4984424;28;97090;-69
2024/03/13 05:41:45;;;;;;;46.78;24.58;;;;;;;12.25;72.76;101282.00;4990780;28;97962;-70
2024/03/13 05:44:12;;;;;;;53.13;25.65;;;;;;;12.29;72.28;101288.91;4987543;28;98977;-70
2024/03/13 05:46:39;;;;;;;51.78;25.70;;;;;;;12.31;72.34;101278.25;4985467;28;99325;-69
2024/03/13 05:49:05;;;;;;;45.55;25.48;;;;;;;12.15;72.92;101288.50;4988941;28;97763;-69
2024/03/13 05:51:34;;;;;;;53.63;26.63;;;;;;;12.30;73.00;101288.00;4988669;28;98586;-69
2024/03/13 05:54:02;;;;;;;48.08;25.80;;;;;;;12.05;73.71;101291.50;4992249;28;98331;-69
2024/03/13 05:56:28;;;;;;;51.67;26.08;;;;;;;11.98;74.05;101294.38;4980708;28;98836;-68
2024/03/13 05:58:55;;;;;;;53.33;26.52;;;;;;;11.69;75.78;101298.81;4991158;28;97238;-69
2024/03/13 06:01:26;;;;;;;49.58;27.05;;;;;;;11.67;76.15;101298.00;4986685;28;96996;-69
2024/03/13 06:03:53;;;;;;;49.78;26.25;;;;;;;11.67;76.53;101292.72;4991076;28;98884;-70
2024/03/13 06:06:20;;;;;;;50.20;25.90;;;;;;;11.58;76.95;101292.06;4990930;28;99248;-69
2024/03/13 06:08:47;;;;;;;54.42;26.15;;;;;;;11.68;76.42;101291.81;4990838;28;98621;-70
2024/03/13 06:11:14;;;;;;;50.10;25.35;;;;;;;11.80;76.23;101291.44;4989509;28;98857;-70
2024/03/13 06:13:41;;;;;;;49.53;25.92;;;;;;;11.98;75.29;101298.78;4980872;28;100481;-70
2024/03/13 06:16:08;;;;;;;49.28;26.25;;;;;;;12.08;74.86;101294.91;4993768;28;98785;-70
2024/03/13 06:18:35;;;;;;;54.83;27.50;;;;;;;11.75;76.33;101296.88;4992493;28;97367;-70
2024/03/13 06:21:03;;;;;;;48.88;26.67;;;;;;;11.74;76.61;101307.53;4994048;28;97897;-70
2024/03/13 06:23:29;;;;;;;53.67;27.73;;;;;;;11.74;76.24;101304.88;4990261;28;99532;-69
2024/03/13 06:25:57;;;;;;;48.47;27.05;;;;;;;11.42;78.10;101304.03;4993899;28;99153;-69
2024/03/13 06:31:08;;;;;;;51.63;25.88;;;;;;;11.30;78.99;101312.34;4991065;28;97557;-70
2024/03/13 06:33:34;;;;;;;52.03;26.35;;;;;;;11.53;78.49;101309.88;4988580;28;99162;-71
2024/03/13 06:36:01;;;;;;;50.47;25.95;;;;;;;11.68;77.66;101318.28;4988866;28;99115;-71
2024/03/13 06:38:30;;;;;;;49.03;26.50;;;;;;;11.86;76.70;101320.38;4990077;28;98383;-69
2024/03/13 06:40:57;;;;;;;47.17;26.10;;;;;;;12.22;75.00;101311.22;4990797;28;96874;-69
2024/03/13 06:43:24;;;;;;;53.25;28.00;;;;;;;12.24;74.46;101314.69;4991918;28;99916;-68
2024/03/13 06:45:50;;;;;;;49.63;27.42;;;;;;;12.45;73.43;101312.25;4989916;28;101899;-72
2024/03/13 06:48:17;;;;;;;54.25;28.23;;;;;;;12.47;73.51;101318.38;4988326;28;97729;-71
2024/03/13 06:50:44;;;;;;;50.20;28.23;;;;;;;12.45;73.29;101322.84;4992415;28;97360;-70
2024/03/13 06:53:11;;;;;;;51.20;28.05;;;;;;;12.59;72.77;101317.94;4987229;28;100954;-72
2024/03/13 06:55:38;;;;;;;56.67;28.77;;;;;;;12.93;71.21;101318.47;4986263;28;98986;-70
2024/03/13 06:58:05;;;;;;;49.50;27.33;;;;;;;13.00;70.75;101319.09;4987155;28;98797;-71
2024/03/13 07:00:32;;;;;;;52.83;28.88;;;;;;;13.18;69.86;101336.19;4988851;28;99209;-72
2024/03/13 07:03:01;;;;;;;53.78;28.38;;;;;;;13.24;69.57;101325.34;4990912;28;99310;-72
2024/03/13 07:05:28;;;;;;;54.33;28.05;;;;;;;13.14;69.67;101328.31;4985347;28;99516;-71
2024/03/13 07:07:55;;;;;;;55.30;29.60;;;;;;;13.24;69.36;101325.34;4987910;28;98669;-71
2024/03/13 07:10:21;;;;;;;56.33;28.90;;;;;;;13.06;69.94;101340.97;4988098;28;99838;-71
2024/03/13 07:12:49;;;;;;;55.38;28.58;;;;;;;13.15;69.47;101329.19;4988561;28;98899;-73
2024/03/13 07:15:15;;;;;;;49.95;28.08;;;;;;;13.28;68.75;101332.25;4986584;28;99157;-73
2024/03/13 07:17:42;;;;;;;54.33;28.83;;;;;;;12.91;70.90;101333.59;4985547;28;97253;-73
2024/03/13 07:20:09;;;;;;;50.78;28.27;;;;;;;13.30;69.09;101341.03;4992904;28;97420;-74
2024/03/13 07:22:37;;;;;;;52.80;28.80;;;;;;;13.55;67.88;101336.53;4986967;28;99117;-72
2024/03/13 07:25:06;;;;;;;53.90;30.00;;;;;;;13.95;66.27;101339.34;4987864;28;98842;-73
2024/03/13 07:27:34;;;;;;;58.60;29.42;;;;;;;13.84;65.80;101336.28;4990231;28;99147;-73
2024/03/13 07:30:00;;;;;;;54.38;28.70;;;;;;;13.45;66.63;101336.03;4992591;28;96943;-73
2024/03/13 07:32:27;;;;;;;53.65;29.92;;;;;;;13.78;66.41;101344.50;4985210;28;98881;-73
2024/03/13 07:34:53;;;;;;;54.22;30.77;;;;;;;13.83;65.78;101342.50;4993257;28;98127;-73
2024/03/13 07:37:20;;;;;;;53.10;28.15;;;;;;;13.76;66.08;101343.66;4984259;28;98635;-74
2024/03/13 07:39:47;;;;;;;61.75;29.92;;;;;;;13.38;67.66;101341.63;4989653;28;96904;-73
2024/03/13 07:42:14;;;;;;;60.65;30.45;;;;;;;13.60;67.34;101331.91;4987714;28;97766;-74
2024/03/13 07:44:40;;;;;;;62.65;30.33;;;;;;;13.74;66.37;101337.53;4983548;28;99839;-73
2024/03/13 07:47:08;;;;;;;53.90;29.80;;;;;;;14.09;64.81;101338.81;4991621;28;98451;-73
2024/03/13 07:49:35;;;;;;;54.80;27.95;;;;;;;14.51;63.87;101341.50;4985419;28;97465;-74
2024/03/13 07:52:02;;;;;;;52.80;29.17;;;;;;;14.43;63.27;101343.63;4984559;28;97799;-73
2024/03/13 07:54:29;;;;;;;50.15;28.67;;;;;;;14.87;61.63;101343.50;4984718;28;101577;-74
2024/03/13 07:56:55;;;;;;;54.67;30.52;;;;;;;14.94;60.73;101342.31;4988102;28;96845;-74
2024/03/13 07:59:25;;;;;;;95.18;31.58;;;;;;;14.75;61.52;101351.09;4989565;28;97699;-74
2024/03/13 08:01:52;;;;;;;51.05;29.33;;;;;;;15.04;60.71;101347.16;4989631;28;99100;-74
2024/03/13 08:04:23;;;;;;;51.70;28.60;;;;;;;15.30;59.41;101345.97;4986801;28;101376;-74
2024/03/13 08:06:53;;;;;;;56.97;30.63;;;;;;;15.34;58.42;101355.56;4989841;28;97386;-76
2024/03/13 08:09:28;;;;;;;59.65;29.75;;;;;;;15.06;59.33;101361.25;4985639;28;97318;-73
2024/03/13 08:11:54;;;;;;;47.40;26.13;;;;;;;15.30;57.64;101356.63;4984716;28;99457;-74
2024/03/13 08:14:21;;;;;;;48.58;26.65;;;;;;;14.87;59.28;101357.69;4990075;28;97807;-74
2024/03/13 08:16:50;;;;;;;52.53;27.48;;;;;;;15.08;59.11;101358.53;4991143;28;97599;-75
2024/03/13 08:19:17;;;;;;;51.45;27.77;;;;;;;15.02;58.99;101353.50;4983023;28;97517;-73
2024/03/13 08:21:44;;;;;;;53.55;25.95;;;;;;;15.21;58.47;101359.72;4987644;28;98907;-73
2024/03/13 08:24:11;;;;;;;53.47;28.02;;;;;;;15.24;57.75;101359.56;4984425;28;99715;-73
2024/03/13 08:26:37;;;;;;;46.13;25.42;;;;;;;15.34;56.43;101358.25;4987990;28;97616;-73
2024/03/13 08:29:04;;;;;;;43.30;23.75;;;;;;;15.45;55.41;101353.28;4987109;28;96979;-72
2024/03/13 08:31:32;;;;;;;44.25;24.55;;;;;;;15.27;55.13;101346.13;4981177;28;99074;-74
2024/03/13 08:33:58;;;;;;;44.20;24.30;;;;;;;15.24;55.78;101353.38;4988994;28;100298;-73
2024/03/13 08:36:25;;;;;;;43.40;22.70;;;;;;;14.71;56.73;101357.47;4986182;28;97695;-72
2024/03/13 08:38:52;;;;;;;47.03;23.90;;;;;;;15.22;56.29;101350.81;4978385;28;96869;-73
2024/03/13 08:41:19;;;;;;;47.15;25.48;;;;;;;15.48;55.46;101355.81;4982888;28;98316;-73
2024/03/13 08:43:46;;;;;;;42.63;24.15;;;;;;;16.01;54.12;101355.13;4989155;28;98128;-74
2024/03/13 08:46:13;;;;;;;44.50;24.58;;;;;;;16.84;51.67;101347.38;4987628;28;97861;-72
2024/03/13 08:48:39;;;;;;;39.50;22.05;;;;;;;15.87;52.44;101355.78;4984631;28;97446;-72
2024/03/13 08:51:09;;;;;;;36.03;21.42;;;;;;;15.89;52.83;101355.69;4987663;28;101149;-73
2024/03/13 08:53:36;;;;;;;38.55;22.60;;;;;;;16.15;52.51;101349.94;4988233;28;99629;-73
2024/03/13 08:56:02;;;;;;;36.63;21.92;;;;;;;16.22;51.74;101350.50;4988999;28;96784;-72
2024/03/13 08:58:29;;;;;;;40.20;23.42;;;;;;;16.61;50.65;101345.00;4984111;28;97340;-74
2024/03/13 09:00:59;;;;;;;42.75;23.15;;;;;;;16.65;50.25;101346.59;4984425;28;99688;-73
2024/03/13 09:03:26;;;;;;;36.28;22.30;;;;;;;16.69;50.12;101341.03;4989247;28;98796;-72
2024/03/13 09:05:52;;;;;;;38.85;21.48;;;;;;;16.61;50.11;101347.69;4988390;28;97045;-72
2024/03/13 09:08:20;;;;;;;36.20;20.25;;;;;;;15.61;52.55;101347.28;4989356;28;97527;-73
2024/03/13 09:10:47;;;;;;;37.60;19.83;;;;;;;15.81;52.42;101350.72;4997617;28;99064;-73
2024/03/13 09:13:13;;;;;;;38.28;20.98;;;;;;;16.11;51.53;101356.38;4983969;28;99096;-73
2024/03/13 09:15:40;;;;;;;34.60;20.40;;;;;;;16.60;50.30;101351.31;4989111;28;97083;-73
2024/03/13 09:18:07;;;;;;;39.88;22.33;;;;;;;17.06;48.88;101350.66;4989023;28;96986;-73
2024/03/13 09:20:33;;;;;;;34.05;19.50;;;;;;;16.90;48.27;101352.41;4984315;28;98369;-74
2024/03/13 09:23:00;;;;;;;34.95;19.90;;;;;;;17.02;47.95;101353.56;4990155;28;99948;-73
2024/03/13 09:25:26;;;;;;;42.78;23.10;;;;;;;17.32;47.38;101359.09;4982859;28;96963;-73
2024/03/13 09:27:54;;;;;;;36.33;20.23;;;;;;;17.49;46.56;101353.69;4987344;28;97209;-73
2024/03/13 09:30:20;;;;;;;40.00;19.23;;;;;;;17.39;46.66;101352.47;4987967;28;99328;-74
2024/03/13 09:32:47;;;;;;;37.40;19.25;;;;;;;17.14;46.89;101343.09;4989717;28;98739;-72
2024/03/13 09:35:17;;;;;;;30.55;18.08;;;;;;;16.75;47.34;101345.16;4987770;28;98896;-72
2024/03/13 09:37:44;;;;;;;35.38;19.27;;;;;;;17.07;46.99;101341.69;4988888;28;97425;-73
2024/03/13 09:40:12;;;;;;;33.88;18.50;;;;;;;16.11;48.68;101352.84;4986092;28;98845;-72
2024/03/13 09:42:39;;;;;;;32.75;18.08;;;;;;;16.08;49.34;101345.84;4989527;28;102137;-71
2024/03/13 09:45:07;;;;;;;42.63;17.95;;;;;;;16.68;48.02;101333.09;4987896;28;97278;-72
2024/03/13 09:47:33;;;;;;;35.80;17.80;;;;;;;16.85;47.27;101318.88;4986066;28;97054;-72
2024/03/13 09:50:02;;;;;;;36.22;20.08;;;;;;;17.33;46.23;101326.94;4986284;28;98883;-72
2024/03/13 09:52:32;;;;;;;35.10;17.58;;;;;;;17.01;46.02;101326.00;4985564;28;100761;-72
2024/03/13 09:54:59;;;;;;;32.65;18.20;;;;;;;15.75;49.37;101329.69;4988288;28;97226;-73
2024/03/13 09:57:26;;;;;;;34.53;19.38;;;;;;;15.76;49.41;101334.06;4986607;28;97789;-74
2024/03/13 09:59:56;;;;;;;32.78;19.58;;;;;;;15.69;49.77;101335.31;4983746;28;98067;-73
2024/03/13 10:02:23;;;;;;;36.72;19.85;;;;;;;16.23;49.11;101329.09;4986580;28;99568;-72
2024/03/13 10:04:52;;;;;;;39.70;19.70;;;;;;;16.79;47.70;101320.06;4988537;28;97297;-72
2024/03/13 10:07:19;;;;;;;38.33;19.95;;;;;;;16.71;47.88;101327.59;4986427;28;98412;-73
2024/03/13 10:09:46;;;;;;;31.00;17.60;;;;;;;17.06;45.55;101333.78;4983641;28;99572;-72
2024/03/13 10:12:13;;;;;;;29.08;16.05;;;;;;;17.17;43.94;101325.19;4982606;28;99650;-70
2024/03/13 10:14:40;;;;;;;30.00;16.63;;;;;;;16.70;45.66;101329.41;4985094;28;97365;-69
2024/03/13 10:17:07;;;;;;;29.20;17.73;;;;;;;16.89;45.56;101321.31;4989264;28;97623;-70
2024/03/13 10:19:33;;;;;;;32.63;16.88;;;;;;;17.18;44.68;101316.22;4985799;28;99202;-73
2024/03/13 10:22:00;;;;;;;30.13;16.23;;;;;;;17.50;44.09;101318.00;4988285;28;97803;-73
2024/03/13 10:24:30;;;;;;;28.58;16.77;;;;;;;17.90;43.38;101316.66;4989243;28;96904;-74
2024/03/13 10:26:57;;;;;;;28.45;16.70;;;;;;;18.32;41.88;101311.50;4984738;28;96951;-72
2024/03/13 10:29:23;;;;;;;30.98;16.67;;;;;;;18.39;41.30;101305.78;4986432;28;102421;-73
2024/03/13 10:31:51;;;;;;;27.63;15.73;;;;;;;18.26;41.24;101303.84;4983921;28;98704;-73
2024/03/13 10:34:18;;;;;;;28.83;16.55;;;;;;;18.12;41.21;101293.06;4988227;28;97272;-74
2024/03/13 10:36:44;;;;;;;28.17;16.52;;;;;;;18.00;42.49;101300.94;4982098;28;97323;-74
2024/03/13 10:39:12;;;;;;;29.65;15.55;;;;;;;17.59;41.67;101300.63;4986324;28;99098;-74
2024/03/13 10:41:44;;;;;;;28.95;16.35;;;;;;;17.56;42.62;101292.75;4988568;28;102060;-73
2024/03/13 10:44:10;;;;;;;24.25;14.70;;;;;;;17.82;42.22;101292.19;4992930;28;97292;-73
2024/03/13 10:46:37;;;;;;;29.70;17.90;;;;;;;17.91;42.75;101291.66;4989424;28;97138;-73
2024/03/13 10:49:03;;;;;;;33.20;17.27;;;;;;;17.28;43.44;101298.75;4991221;28;99177;-74
2024/03/13 10:51:30;;;;;;;30.65;17.25;;;;;;;17.01;44.91;101293.94;4988691;28;98700;-73
2024/03/13 10:53:57;;;;;;;33.53;18.17;;;;;;;17.12;44.79;101288.06;4985970;28;98101;-72
2024/03/13 10:56:23;;;;;;;40.90;16.33;;;;;;;17.31;43.41;101291.44;4988565;28;97067;-73
2024/03/13 10:58:50;;;;;;;29.48;15.93;;;;;;;16.45;45.32;101293.38;4994690;28;99093;-73
2024/03/13 11:01:17;;;;;;;40.08;16.13;;;;;;;16.62;45.22;101290.72;4989860;28;97969;-74
2024/03/13 11:03:45;;;;;;;32.33;15.10;;;;;;;16.66;45.38;101279.81;4991717;28;97277;-73
2024/03/13 11:06:15;;;;;;;27.55;16.05;;;;;;;16.68;45.45;101295.72;4982242;28;97204;-73
2024/03/13 11:08:42;;;;;;;43.42;18.30;;;;;;;17.25;44.52;101294.47;4987259;28;99096;-73
2024/03/13 11:11:09;;;;;;;28.65;16.48;;;;;;;17.37;43.28;101293.78;4991274;28;98944;-73
2024/03/13 11:13:36;;;;;;;25.90;16.00;;;;;;;17.73;42.49;101287.34;4993376;28;97177;-73
2024/03/13 11:16:03;;;;;;;28.90;15.95;;;;;;;18.10;41.70;101299.50;4992635;28;96983;-72
2024/03/13 11:18:33;;;;;;;25.35;15.45;;;;;;;17.69;41.56;101292.00;4990517;28;101487;-73
2024/03/13 11:21:00;;;;;;;26.13;15.23;;;;;;;18.13;41.15;101291.28;4985086;28;99183;-74
2024/03/13 11:23:29;;;;;;;27.92;14.98;;;;;;;18.64;40.34;101285.53;4984443;28;98830;-73
2024/03/13 11:25:55;;;;;;;24.55;14.52;;;;;;;18.54;39.13;101276.31;4992475;28;97047;-74
2024/03/13 11:28:22;;;;;;;40.33;16.10;;;;;;;18.61;39.11;101282.19;4986062;28;97594;-74
2024/03/13 11:30:49;;;;;;;40.83;14.38;;;;;;;18.97;38.76;101274.56;4984169;28;98759;-75